Portada
METAR-TAF:

METAR-TAF

Aeropuertos :

Aeropuerto Internacional de Kunming-Changshui

Kunming, China

latitud: 25-01N, longitud: 102-41E, altitud: 1892 m

Observación

El informe se hizo hace 29 minutos, a las 03:00 UTC
Viento 8 kt del oeste-suroeste
Temperatura 17°C
Humedad 77%
Presión 1027 hPa
Visibilidad: 8000 m
Nubes dispersas a una altura de 2000 ft

METAR: ZPPP 220300Z 24004MPS 8000 SCT020 17/13 Q1027 BECMG TL0430 22010MPS

Hora: 11:29 (03:29 UTC)

Pronóstico

El informe se hizo hace 8 horas y 16 minutos, a las 19:13 UTC
Pronóstico válido del 22 a las 00 UTC al 22 a las 24 UTC
Viento 8 kt del suroeste
Visibilidad 10 km o más
Nubes dispersas a una altura de 2600 ft

TAF: ZPPP 211913Z 2200/2224 22004MPS 9999 SCT026 TX22/2208Z TN10/2223Z

Observaciones y pronósticos meteorológicos de más de 4000 aeropuertos (mensajes METAR y TAF).

Los puntos amarillos y rojos representan las estaciones disponibles.

Ponga el ratón en el punto deseado para ver el nombre de la estación.

Haga clic para ver las observaciones y los pronósticos meteorológicos.

Para cambiar el mapa : haga clic en los botones verdes con una cruz de color negro para hacer un zoom, en el botón verde con un guión para alejar o en las flechas verdes para mapas adyacentes.


METAR-TAF: